Time;durP1;ratioP1;P1;durP2;ratioP2;P2;SDS_P1;SDS_P2;PMS_P1;PMS_P2;Temp;Humidity;BMP_temperature;BMP_pressure;BME280_temperature;BME280_humidity;BME280_pressure;Samples;Min_cycle;Max_cycle;Signal;HPM_P1;HPM_P2
2023/09/02 00:00:47;;;;;;;56.70;2.70;;;;;;;;;;5074095;28;20457;-69
2023/09/02 00:03:14;;;;;;;57.57;3.23;;;;;;;;;;5073739;28;20808;-69
2023/09/02 00:05:41;;;;;;;56.70;2.40;;;;;;;;;;5073725;28;20822;-70
2023/09/02 00:08:10;;;;;;;56.80;2.70;;;;;;;;;;5073834;28;20443;-69
2023/09/02 00:10:37;;;;;;;56.47;2.30;;;;;;;;;;5073648;28;20447;-70
2023/09/02 00:13:04;;;;;;;56.40;2.20;;;;;;;;;;5073327;28;20451;-70
2023/09/02 00:15:31;;;;;;;56.40;2.37;;;;;;;;;;5073684;28;20502;-70
2023/09/02 00:17:58;;;;;;;56.77;2.40;;;;;;;;;;5073800;28;20818;-70
2023/09/02 00:20:25;;;;;;;56.80;2.70;;;;;;;;;;5073595;28;20467;-69
2023/09/02 00:22:53;;;;;;;56.80;2.20;;;;;;;;;;5073531;28;20469;-69
2023/09/02 00:25:22;;;;;;;56.70;2.30;;;;;;;;;;5073139;28;20509;-70
2023/09/02 00:27:49;;;;;;;56.40;2.30;;;;;;;;;;5073669;28;20480;-70
2023/09/02 00:30:16;;;;;;;56.73;2.30;;;;;;;;;;5073733;28;20471;-70
2023/09/02 00:32:43;;;;;;;56.57;2.30;;;;;;;;;;5073197;28;20796;-69
2023/09/02 00:35:11;;;;;;;56.57;2.30;;;;;;;;;;5073244;28;20462;-70
2023/09/02 00:37:38;;;;;;;56.80;2.70;;;;;;;;;;5073062;28;20542;-69
2023/09/02 00:40:06;;;;;;;57.23;2.37;;;;;;;;;;5073078;28;20447;-69
2023/09/02 00:42:35;;;;;;;56.80;2.40;;;;;;;;;;5072767;28;20950;-70
2023/09/02 00:45:02;;;;;;;56.63;2.27;;;;;;;;;;5073049;28;20866;-69
2023/09/02 00:47:30;;;;;;;56.50;2.70;;;;;;;;;;5073247;28;20451;-69
2023/09/02 00:50:00;;;;;;;56.57;2.60;;;;;;;;;;5073218;28;20453;-71
2023/09/02 00:52:27;;;;;;;56.60;2.40;;;;;;;;;;5072549;28;20862;-72
2023/09/02 00:54:54;;;;;;;56.70;2.47;;;;;;;;;;5072829;28;20975;-70
2023/09/02 00:57:21;;;;;;;56.40;2.20;;;;;;;;;;5073133;28;20450;-72
2023/09/02 00:59:49;;;;;;;56.60;2.17;;;;;;;;;;5072762;28;20443;-69
2023/09/02 01:02:17;;;;;;;56.60;2.30;;;;;;;;;;5072673;28;20958;-69
2023/09/02 01:04:44;;;;;;;56.70;2.20;;;;;;;;;;5072677;28;20471;-70
2023/09/02 01:07:12;;;;;;;56.50;2.30;;;;;;;;;;5072417;28;20455;-70
2023/09/02 01:09:39;;;;;;;56.57;2.20;;;;;;;;;;5072330;28;20498;-69
2023/09/02 01:12:06;;;;;;;56.33;2.30;;;;;;;;;;5072510;28;20523;-69
2023/09/02 01:14:34;;;;;;;56.50;2.30;;;;;;;;;;5072858;28;20470;-71
2023/09/02 01:17:02;;;;;;;56.70;2.80;;;;;;;;;;5072443;28;20440;-69
2023/09/02 01:19:30;;;;;;;56.30;2.20;;;;;;;;;;5072452;28;20576;-69
2023/09/02 01:22:02;;;;;;;56.80;2.70;;;;;;;;;;5072588;28;20517;-69
2023/09/02 01:24:52;;;;;;;56.37;2.20;;;;;;;;;;5072465;28;20621;-68
2023/09/02 01:27:21;;;;;;;56.80;2.50;;;;;;;;;;5072248;28;20446;-69
2023/09/02 01:29:50;;;;;;;56.57;2.30;;;;;;;;;;5072120;28;20949;-70
2023/09/02 01:32:19;;;;;;;56.60;2.50;;;;;;;;;;5072038;28;20951;-69
2023/09/02 01:34:47;;;;;;;56.70;2.30;;;;;;;;;;5072316;28;20493;-70
2023/09/02 01:37:17;;;;;;;55.67;2.07;;;;;;;;;;5071923;28;20956;-72
2023/09/02 01:39:45;;;;;;;56.70;2.60;;;;;;;;;;5072080;28;20454;-72
2023/09/02 01:42:13;;;;;;;56.57;2.10;;;;;;;;;;5065987;28;20456;-71
2023/09/02 01:44:42;;;;;;;56.50;2.60;;;;;;;;;;5063852;28;20467;-69
2023/09/02 01:47:09;;;;;;;56.60;2.30;;;;;;;;;;5071696;28;20440;-69
2023/09/02 01:49:37;;;;;;;56.43;2.17;;;;;;;;;;5071705;28;20435;-70
2023/09/02 01:52:04;;;;;;;56.50;2.20;;;;;;;;;;5071965;28;20439;-70
2023/09/02 01:54:32;;;;;;;56.50;2.27;;;;;;;;;;5071533;28;20471;-69
2023/09/02 01:56:59;;;;;;;57.10;3.13;;;;;;;;;;5071746;28;20439;-69
2023/09/02 01:59:26;;;;;;;56.47;2.40;;;;;;;;;;5071571;28;20450;-69
2023/09/02 02:01:55;;;;;;;56.60;2.20;;;;;;;;;;5071254;28;20439;-72
2023/09/02 02:04:25;;;;;;;56.57;2.10;;;;;;;;;;5071479;28;20546;-70
2023/09/02 02:06:53;;;;;;;57.37;3.73;;;;;;;;;;5071222;28;20526;-70
2023/09/02 02:09:23;;;;;;;56.80;2.40;;;;;;;;;;5071360;28;20443;-70
2023/09/02 02:11:51;;;;;;;56.57;2.17;;;;;;;;;;5071315;28;20454;-70
2023/09/02 02:14:18;;;;;;;56.60;2.30;;;;;;;;;;5071385;28;20460;-70
2023/09/02 02:16:45;;;;;;;56.70;2.50;;;;;;;;;;5071335;28;20962;-71
2023/09/02 02:19:14;;;;;;;57.77;2.57;;;;;;;;;;5071199;28;20443;-71
2023/09/02 02:21:41;;;;;;;56.53;2.23;;;;;;;;;;5067218;28;20478;-70
2023/09/02 02:24:08;;;;;;;56.60;2.30;;;;;;;;;;5067407;28;20456;-68
2023/09/02 02:26:35;;;;;;;57.20;3.50;;;;;;;;;;5070457;28;20490;-69
2023/09/02 02:29:03;;;;;;;56.40;2.27;;;;;;;;;;5071318;28;20443;-69
2023/09/02 02:31:30;;;;;;;56.57;2.40;;;;;;;;;;5071155;28;20827;-70
2023/09/02 02:33:57;;;;;;;56.60;2.20;;;;;;;;;;5070656;28;20439;-68
2023/09/02 02:36:25;;;;;;;56.70;2.30;;;;;;;;;;5070871;28;20455;-69
2023/09/02 02:38:52;;;;;;;56.50;2.40;;;;;;;;;;5071297;28;20455;-69
2023/09/02 02:41:19;;;;;;;56.47;2.30;;;;;;;;;;5071074;28;20811;-70
2023/09/02 02:43:46;;;;;;;56.70;2.60;;;;;;;;;;5070780;28;20439;-69
2023/09/02 02:46:14;;;;;;;56.47;2.23;;;;;;;;;;5070650;28;20483;-69
2023/09/02 02:48:41;;;;;;;56.50;2.27;;;;;;;;;;5070805;28;20443;-70
2023/09/02 02:51:08;;;;;;;56.47;2.17;;;;;;;;;;5071055;28;20450;-73
2023/09/02 02:53:36;;;;;;;57.10;2.93;;;;;;;;;;5070706;28;20443;-73
2023/09/02 02:56:04;;;;;;;56.50;2.30;;;;;;;;;;5070879;28;20474;-70
2023/09/02 02:58:32;;;;;;;56.60;2.40;;;;;;;;;;5070904;28;20446;-70
2023/09/02 03:01:03;;;;;;;56.43;2.50;;;;;;;;;;5070791;28;20459;-70
2023/09/02 03:03:31;;;;;;;56.50;2.37;;;;;;;;;;5070770;28;20530;-70
2023/09/02 03:05:58;;;;;;;56.47;2.40;;;;;;;;;;5070501;28;21017;-70
2023/09/02 03:08:25;;;;;;;56.47;2.20;;;;;;;;;;5070889;28;20457;-71
2023/09/02 03:10:58;;;;;;;56.87;2.57;;;;;;;;;;5070690;28;20446;-69
2023/09/02 03:13:25;;;;;;;56.37;2.20;;;;;;;;;;5070349;28;20850;-70
2023/09/02 03:15:53;;;;;;;56.43;2.30;;;;;;;;;;5070373;28;20460;-70
2023/09/02 03:18:20;;;;;;;56.37;2.70;;;;;;;;;;5070632;28;21072;-70
2023/09/02 03:20:47;;;;;;;56.40;2.70;;;;;;;;;;5070585;28;20443;-70
2023/09/02 03:23:15;;;;;;;56.37;2.43;;;;;;;;;;5070267;28;20447;-70
2023/09/02 03:25:42;;;;;;;56.60;2.23;;;;;;;;;;5070323;28;20984;-70
2023/09/02 03:28:12;;;;;;;57.00;3.17;;;;;;;;;;5070477;28;20458;-71
2023/09/02 03:30:39;;;;;;;58.17;3.10;;;;;;;;;;5070975;28;20796;-70
2023/09/02 03:33:07;;;;;;;57.30;2.80;;;;;;;;;;5071006;28;20450;-70
2023/09/02 03:35:38;;;;;;;60.60;5.40;;;;;;;;;;5074367;28;20463;-69
2023/09/02 03:38:06;;;;;;;58.07;3.00;;;;;;;;;;5074204;28;20935;-70
2023/09/02 03:40:33;;;;;;;56.90;2.60;;;;;;;;;;5074211;28;20474;-71
2023/09/02 03:43:00;;;;;;;56.87;2.77;;;;;;;;;;5070208;28;20536;-71
2023/09/02 03:45:28;;;;;;;56.87;2.50;;;;;;;;;;5057791;28;20475;-71
2023/09/02 03:47:55;;;;;;;56.67;2.70;;;;;;;;;;5068358;28;20448;-73
2023/09/02 03:50:24;;;;;;;56.63;2.60;;;;;;;;;;5071689;28;20455;-71
2023/09/02 03:52:51;;;;;;;57.60;3.13;;;;;;;;;;5073784;28;20451;-70
2023/09/02 03:55:18;;;;;;;56.60;2.60;;;;;;;;;;5073794;28;20467;-71
2023/09/02 03:57:45;;;;;;;57.00;3.23;;;;;;;;;;5074088;28;20469;-71
2023/09/02 04:00:14;;;;;;;56.60;2.40;;;;;;;;;;5073940;28;20447;-71
2023/09/02 04:02:42;;;;;;;56.60;2.30;;;;;;;;;;5073798;28;20447;-71
2023/09/02 04:05:10;;;;;;;56.53;2.33;;;;;;;;;;5073785;28;20463;-71
2023/09/02 04:07:37;;;;;;;56.43;2.20;;;;;;;;;;5073573;28;20493;-69
2023/09/02 04:10:04;;;;;;;56.30;2.30;;;;;;;;;;5073877;28;20443;-69
2023/09/02 04:12:31;;;;;;;56.43;2.37;;;;;;;;;;5073615;28;20453;-68
2023/09/02 04:14:59;;;;;;;56.50;2.40;;;;;;;;;;5073640;28;20467;-69
2023/09/02 04:17:26;;;;;;;56.47;2.23;;;;;;;;;;5073609;28;20444;-67
2023/09/02 04:19:54;;;;;;;56.50;2.40;;;;;;;;;;5073558;28;20450;-68
2023/09/02 04:22:22;;;;;;;56.60;2.60;;;;;;;;;;5073574;28;20447;-68
2023/09/02 04:24:49;;;;;;;56.57;2.40;;;;;;;;;;5073535;28;20471;-68
2023/09/02 04:27:16;;;;;;;56.37;2.37;;;;;;;;;;5073502;28;20813;-68
2023/09/02 04:29:43;;;;;;;56.53;2.30;;;;;;;;;;5073389;28;20457;-68
2023/09/02 04:32:11;;;;;;;56.47;2.27;;;;;;;;;;5073157;28;20542;-68
2023/09/02 04:34:39;;;;;;;56.60;2.30;;;;;;;;;;5073156;28;20474;-68
2023/09/02 04:37:07;;;;;;;56.50;2.40;;;;;;;;;;5073203;28;20912;-68
2023/09/02 04:39:34;;;;;;;56.53;2.20;;;;;;;;;;5073378;28;20447;-68
2023/09/02 04:42:01;;;;;;;56.60;2.20;;;;;;;;;;5073224;28;20440;-68
2023/09/02 04:44:28;;;;;;;56.47;2.50;;;;;;;;;;5072337;28;21002;-67
2023/09/02 04:46:55;;;;;;;56.37;2.20;;;;;;;;;;5072573;28;20487;-68
2023/09/02 04:49:23;;;;;;;56.57;2.43;;;;;;;;;;5073429;28;20453;-70
2023/09/02 04:51:50;;;;;;;56.43;2.30;;;;;;;;;;5073038;28;20810;-68
2023/09/02 04:54:18;;;;;;;57.37;2.60;;;;;;;;;;5072958;28;21005;-71
2023/09/02 04:56:45;;;;;;;56.60;2.30;;;;;;;;;;5072859;28;20444;-68
2023/09/02 04:59:13;;;;;;;56.67;2.30;;;;;;;;;;5072951;28;20448;-68
2023/09/02 05:01:40;;;;;;;56.33;2.50;;;;;;;;;;5072457;28;20439;-68
2023/09/02 05:04:07;;;;;;;56.37;2.33;;;;;;;;;;5072875;28;20470;-68
2023/09/02 05:06:34;;;;;;;56.60;2.27;;;;;;;;;;5072783;28;21032;-68
2023/09/02 05:09:01;;;;;;;56.50;2.23;;;;;;;;;;5072816;28;20534;-68
2023/09/02 05:11:29;;;;;;;56.70;2.40;;;;;;;;;;5072992;28;20462;-68
2023/09/02 05:13:57;;;;;;;56.53;2.40;;;;;;;;;;5072120;28;20954;-68
2023/09/02 05:16:24;;;;;;;56.70;2.60;;;;;;;;;;5072436;28;20454;-71
2023/09/02 05:18:51;;;;;;;56.47;2.30;;;;;;;;;;5072484;28;20518;-69
2023/09/02 05:21:18;;;;;;;56.60;2.40;;;;;;;;;;5072675;28;20807;-71
2023/09/02 05:23:45;;;;;;;56.67;2.50;;;;;;;;;;5072226;28;20443;-69
2023/09/02 05:26:12;;;;;;;57.07;2.87;;;;;;;;;;5072134;28;20471;-71
2023/09/02 05:28:40;;;;;;;56.27;2.30;;;;;;;;;;5072408;28;20822;-69
2023/09/02 05:31:08;;;;;;;56.40;2.30;;;;;;;;;;5072186;28;20534;-69
2023/09/02 05:33:35;;;;;;;56.43;2.13;;;;;;;;;;5071848;28;20944;-69
2023/09/02 05:36:02;;;;;;;56.33;2.07;;;;;;;;;;5071995;28;20467;-72
2023/09/02 05:38:29;;;;;;;56.40;2.20;;;;;;;;;;5072104;28;20461;-69
2023/09/02 05:40:56;;;;;;;56.47;2.20;;;;;;;;;;5072208;28;20819;-71
2023/09/02 05:43:24;;;;;;;56.80;2.30;;;;;;;;;;5069778;28;20455;-69
2023/09/02 05:45:52;;;;;;;56.50;2.13;;;;;;;;;;5071769;28;20570;-68
2023/09/02 05:48:20;;;;;;;56.33;2.20;;;;;;;;;;5071577;28;20493;-69
2023/09/02 05:50:47;;;;;;;56.57;2.40;;;;;;;;;;5071921;28;20466;-70
2023/09/02 05:53:14;;;;;;;56.60;2.43;;;;;;;;;;5071731;28;20444;-69
2023/09/02 05:55:41;;;;;;;56.90;2.60;;;;;;;;;;5071534;28;20460;-69
2023/09/02 05:58:08;;;;;;;56.60;2.50;;;;;;;;;;5071812;28;20936;-69
2023/09/02 06:00:36;;;;;;;56.33;2.27;;;;;;;;;;5071878;28;20458;-69
2023/09/02 06:03:05;;;;;;;57.57;3.47;;;;;;;;;;5071487;28;20439;-71
2023/09/02 06:05:32;;;;;;;56.47;2.27;;;;;;;;;;5071328;28;20991;-68
2023/09/02 06:07:59;;;;;;;56.67;2.40;;;;;;;;;;5071435;28;20849;-69
2023/09/02 06:10:26;;;;;;;56.63;2.57;;;;;;;;;;5071969;28;20443;-68
2023/09/02 06:12:53;;;;;;;56.17;2.30;;;;;;;;;;5071072;28;20447;-70
2023/09/02 06:15:20;;;;;;;56.70;3.17;;;;;;;;;;5071203;28;20475;-69
2023/09/02 06:17:47;;;;;;;56.37;2.30;;;;;;;;;;5071363;28;20955;-69
2023/09/02 06:20:20;;;;;;;56.90;2.50;;;;;;;;;;5071386;28;20491;-69
2023/09/02 06:22:47;;;;;;;56.47;2.60;;;;;;;;;;5071094;28;20447;-68
2023/09/02 06:25:14;;;;;;;56.33;2.20;;;;;;;;;;5071062;28;20486;-69
2023/09/02 06:27:41;;;;;;;56.57;2.40;;;;;;;;;;5071207;28;20483;-68
2023/09/02 06:30:08;;;;;;;56.47;2.33;;;;;;;;;;5071352;28;20450;-68
2023/09/02 06:32:35;;;;;;;56.47;2.50;;;;;;;;;;5071011;28;20834;-72
2023/09/02 06:35:04;;;;;;;56.27;2.70;;;;;;;;;;5071051;28;20470;-68
2023/09/02 06:37:33;;;;;;;56.47;2.30;;;;;;;;;;5070962;28;20776;-69
2023/09/02 06:40:00;;;;;;;56.70;2.83;;;;;;;;;;5071086;28;20443;-71
2023/09/02 06:42:27;;;;;;;56.43;2.53;;;;;;;;;;5071000;28;20449;-69
2023/09/02 06:44:54;;;;;;;56.47;2.43;;;;;;;;;;5070959;28;21003;-70
2023/09/02 06:47:21;;;;;;;56.40;2.30;;;;;;;;;;5070893;28;20995;-68
2023/09/02 06:49:48;;;;;;;56.67;2.80;;;;;;;;;;5070983;28;20447;-69
2023/09/02 06:52:16;;;;;;;58.10;3.13;;;;;;;;;;5070876;28;20447;-69
2023/09/02 06:54:44;;;;;;;56.60;3.00;;;;;;;;;;5071152;28;20470;-69
2023/09/02 06:57:12;;;;;;;56.27;2.67;;;;;;;;;;5070977;28;20830;-69
2023/09/02 06:59:39;;;;;;;56.30;2.30;;;;;;;;;;5070948;28;20443;-69
2023/09/02 07:02:06;;;;;;;56.13;2.30;;;;;;;;;;5070595;28;20451;-70
2023/09/02 07:04:33;;;;;;;56.70;2.53;;;;;;;;;;5070692;28;20842;-69
2023/09/02 07:07:00;;;;;;;56.40;2.47;;;;;;;;;;5070605;28;20970;-69
2023/09/02 07:09:27;;;;;;;56.40;2.40;;;;;;;;;;5076979;28;20439;-69
2023/09/02 07:11:56;;;;;;;56.37;2.33;;;;;;;;;;5077348;28;20447;-69
2023/09/02 07:14:23;;;;;;;56.50;2.70;;;;;;;;;;5077741;28;20958;-70
2023/09/02 07:16:50;;;;;;;57.00;2.73;;;;;;;;;;5076994;28;20442;-69
2023/09/02 07:19:18;;;;;;;56.23;2.70;;;;;;;;;;5077231;28;20447;-69
2023/09/02 07:21:45;;;;;;;56.30;2.47;;;;;;;;;;5077075;28;20822;-70
2023/09/02 07:24:12;;;;;;;56.90;2.90;;;;;;;;;;5077385;28;20451;-70
2023/09/02 07:26:39;;;;;;;56.90;2.70;;;;;;;;;;5077335;28;20445;-70
2023/09/02 07:29:07;;;;;;;56.67;2.43;;;;;;;;;;5077301;28;20453;-70
2023/09/02 07:31:35;;;;;;;56.40;2.20;;;;;;;;;;5077146;28;21005;-70
2023/09/02 07:34:02;;;;;;;56.40;2.50;;;;;;;;;;5076917;28;20447;-70
2023/09/02 07:36:29;;;;;;;56.30;2.30;;;;;;;;;;5077058;28;20455;-70
2023/09/02 07:38:56;;;;;;;56.27;2.20;;;;;;;;;;5077418;28;20471;-70
2023/09/02 07:41:23;;;;;;;56.20;2.17;;;;;;;;;;5077218;28;20458;-70
2023/09/02 07:43:50;;;;;;;56.40;2.33;;;;;;;;;;5070564;28;20887;-71
2023/09/02 07:46:19;;;;;;;56.27;2.37;;;;;;;;;;5076948;28;20469;-70
2023/09/02 07:48:48;;;;;;;56.10;2.30;;;;;;;;;;5076720;28;20485;-71
2023/09/02 07:51:15;;;;;;;56.07;2.30;;;;;;;;;;5077191;28;20451;-70
2023/09/02 07:53:42;;;;;;;56.17;2.20;;;;;;;;;;5076747;28;20951;-69
2023/09/02 07:56:09;;;;;;;56.17;2.10;;;;;;;;;;5077087;28;20465;-70
2023/09/02 07:58:37;;;;;;;56.20;2.17;;;;;;;;;;5076849;28;20903;-70
2023/09/02 08:01:04;;;;;;;56.03;1.97;;;;;;;;;;5076844;28;20943;-72
2023/09/02 08:03:32;;;;;;;56.07;1.93;;;;;;;;;;5076877;28;20445;-70
2023/09/02 08:06:05;;;;;;;56.20;2.20;;;;;;;;;;5076931;28;20473;-69
2023/09/02 08:08:32;;;;;;;56.07;2.30;;;;;;;;;;5077049;28;20543;-68
2023/09/02 08:11:02;;;;;;;55.87;2.00;;;;;;;;;;5076761;28;20919;-69
2023/09/02 08:13:29;;;;;;;56.60;2.30;;;;;;;;;;5076481;28;20443;-69
2023/09/02 08:15:56;;;;;;;56.47;2.30;;;;;;;;;;5076909;28;20469;-70
2023/09/02 08:18:23;;;;;;;56.57;2.93;;;;;;;;;;5077088;28;20441;-69
2023/09/02 08:20:52;;;;;;;55.87;2.00;;;;;;;;;;5074112;28;20824;-69
2023/09/02 08:23:19;;;;;;;56.27;2.17;;;;;;;;;;5073406;28;20492;-69
2023/09/02 08:25:46;;;;;;;56.10;2.00;;;;;;;;;;5073377;28;20467;-69
2023/09/02 08:28:13;;;;;;;55.97;2.17;;;;;;;;;;5073278;28;20485;-70
2023/09/02 08:30:41;;;;;;;56.70;3.17;;;;;;;;;;5068427;28;20486;-71
2023/09/02 08:33:08;;;;;;;55.97;1.90;;;;;;;;;;5073068;28;20959;-69
2023/09/02 08:35:36;;;;;;;56.30;2.50;;;;;;;;;;5073579;28;20460;-71
2023/09/02 08:38:04;;;;;;;56.00;2.03;;;;;;;;;;5073535;28;20820;-71
2023/09/02 08:40:32;;;;;;;56.20;2.10;;;;;;;;;;5073114;28;20943;-69
2023/09/02 08:43:01;;;;;;;56.03;2.20;;;;;;;;;;5072992;28;20457;-70
2023/09/02 08:45:30;;;;;;;56.00;1.90;;;;;;;;;;5073456;28;21025;-71
2023/09/02 08:48:00;;;;;;;57.13;2.10;;;;;;;;;;5073213;28;20479;-69
2023/09/02 08:50:28;;;;;;;56.30;2.10;;;;;;;;;;5073175;28;20467;-70
2023/09/02 08:52:55;;;;;;;56.37;2.30;;;;;;;;;;5072906;28;20478;-70
2023/09/02 08:55:24;;;;;;;57.23;2.20;;;;;;;;;;5073080;28;20463;-69
2023/09/02 08:57:52;;;;;;;56.30;2.30;;;;;;;;;;5073266;28;20439;-70
2023/09/02 09:00:19;;;;;;;56.20;2.00;;;;;;;;;;5073009;28;20450;-69
2023/09/02 09:02:46;;;;;;;56.40;2.27;;;;;;;;;;5072555;28;20970;-70
2023/09/02 09:05:14;;;;;;;55.97;2.30;;;;;;;;;;5072775;28;20463;-70
2023/09/02 09:07:41;;;;;;;56.60;2.27;;;;;;;;;;5072682;28;20486;-70
2023/09/02 09:10:10;;;;;;;56.40;2.47;;;;;;;;;;5073092;28;20444;-70
2023/09/02 09:12:39;;;;;;;56.67;2.33;;;;;;;;;;5072773;28;20853;-70
2023/09/02 09:15:08;;;;;;;56.20;1.90;;;;;;;;;;5072631;28;20471;-70
2023/09/02 09:17:35;;;;;;;56.10;2.00;;;;;;;;;;5072546;28;20497;-70
2023/09/02 09:20:03;;;;;;;55.93;1.83;;;;;;;;;;5070350;28;20467;-70
2023/09/02 09:22:30;;;;;;;56.10;1.83;;;;;;;;;;5067853;28;20501;-68
2023/09/02 09:24:58;;;;;;;56.07;1.93;;;;;;;;;;5070346;28;20612;-69
2023/09/02 09:27:26;;;;;;;56.60;2.13;;;;;;;;;;5066004;28;20510;-70
2023/09/02 09:29:54;;;;;;;55.97;2.03;;;;;;;;;;5071115;28;20539;-69
2023/09/02 09:32:23;;;;;;;55.97;1.90;;;;;;;;;;5071534;28;20439;-69
2023/09/02 09:34:51;;;;;;;56.10;2.27;;;;;;;;;;5072111;28;21022;-69
2023/09/02 09:37:18;;;;;;;57.27;2.20;;;;;;;;;;5072041;28;20465;-69
2023/09/02 09:39:46;;;;;;;56.30;1.83;;;;;;;;;;5072019;28;20478;-70
2023/09/02 09:42:14;;;;;;;56.07;2.10;;;;;;;;;;5072039;28;20513;-69
2023/09/02 09:44:56;;;;;;;56.07;1.83;;;;;;;;;;5071943;28;20839;-69
2023/09/02 09:47:25;;;;;;;56.00;1.70;;;;;;;;;;5069452;28;20455;-70
2023/09/02 09:49:52;;;;;;;56.20;1.93;;;;;;;;;;5072099;28;20531;-69
2023/09/02 09:52:20;;;;;;;57.93;2.73;;;;;;;;;;5071719;28;20443;-70
2023/09/02 09:54:48;;;;;;;55.63;1.83;;;;;;;;;;5072177;28;20462;-70
2023/09/02 09:57:17;;;;;;;56.60;1.90;;;;;;;;;;5071693;28;20444;-70
2023/09/02 09:59:53;;;;;;;56.17;1.97;;;;;;;;;;5071555;28;20942;-69
2023/09/02 10:02:21;;;;;;;58.10;2.10;;;;;;;;;;5071507;28;20961;-69
2023/09/02 10:04:53;;;;;;;56.30;1.70;;;;;;;;;;5071780;28;20463;-70
2023/09/02 10:07:24;;;;;;;55.87;1.70;;;;;;;;;;5071759;28;20777;-70
2023/09/02 10:09:51;;;;;;;55.80;1.90;;;;;;;;;;5071960;28;20447;-71
2023/09/02 10:12:18;;;;;;;55.80;1.67;;;;;;;;;;5071129;28;20899;-70
2023/09/02 10:14:46;;;;;;;55.53;1.50;;;;;;;;;;5071950;28;20469;-70
2023/09/02 10:17:13;;;;;;;55.70;1.70;;;;;;;;;;5071490;28;20451;-68
2023/09/02 10:19:41;;;;;;;55.57;1.80;;;;;;;;;;5071691;28;20496;-68
2023/09/02 10:22:09;;;;;;;59.17;5.37;;;;;;;;;;5071147;28;20826;-68
2023/09/02 10:24:41;;;;;;;56.20;2.50;;;;;;;;;;5071082;28;20475;-68
2023/09/02 10:27:13;;;;;;;55.27;2.03;;;;;;;;;;5071210;28;20440;-68
2023/09/02 10:29:43;;;;;;;55.17;1.47;;;;;;;;;;5071330;28;20487;-69
2023/09/02 10:32:12;;;;;;;55.47;1.60;;;;;;;;;;5070955;28;20526;-69
2023/09/02 10:34:41;;;;;;;55.40;2.33;;;;;;;;;;5071172;28;20470;-69
2023/09/02 10:37:12;;;;;;;55.50;1.90;;;;;;;;;;5070993;28;20838;-69
2023/09/02 10:39:42;;;;;;;54.77;1.70;;;;;;;;;;5071127;28;20447;-69
2023/09/02 10:42:09;;;;;;;54.97;1.50;;;;;;;;;;5070833;28;20443;-69
2023/09/02 10:44:37;;;;;;;55.07;1.63;;;;;;;;;;5070459;28;20482;-69
2023/09/02 10:47:05;;;;;;;55.00;1.90;;;;;;;;;;5071033;28;20435;-70
2023/09/02 10:49:33;;;;;;;55.00;1.60;;;;;;;;;;5070930;28;21016;-69
2023/09/02 10:52:00;;;;;;;55.07;1.70;;;;;;;;;;5070744;28;20542;-69
2023/09/02 10:54:50;;;;;;;54.73;1.80;;;;;;;;;;5070821;28;21009;-70
2023/09/02 10:57:17;;;;;;;56.80;1.97;;;;;;;;;;5070546;28;20451;-70
2023/09/02 10:59:44;;;;;;;54.70;1.50;;;;;;;;;;5070869;28;20812;-70
2023/09/02 11:02:11;;;;;;;55.20;2.53;;;;;;;;;;5070570;28;20440;-69
2023/09/02 11:04:59;;;;;;;55.10;1.50;;;;;;;;;;5070959;28;20464;-69
2023/09/02 11:07:26;;;;;;;54.97;1.80;;;;;;;;;;5070807;28;20538;-69
2023/09/02 11:09:55;;;;;;;54.60;1.50;;;;;;;;;;5070716;28;20483;-69
2023/09/02 11:12:23;;;;;;;55.10;1.63;;;;;;;;;;5070542;28;20451;-69
2023/09/02 11:15:08;;;;;;;54.70;1.57;;;;;;;;;;5070469;28;20459;-70
2023/09/02 11:17:36;;;;;;;54.60;1.50;;;;;;;;;;5070690;28;20443;-70
2023/09/02 11:20:05;;;;;;;54.97;2.00;;;;;;;;;;5070607;28;20533;-71
2023/09/02 11:22:48;;;;;;;54.73;1.80;;;;;;;;;;5066270;28;20459;-70
2023/09/02 11:25:32;;;;;;;54.60;1.70;;;;;;;;;;5067015;28;20459;-70
2023/09/02 11:28:00;;;;;;;54.80;1.70;;;;;;;;;;5070700;28;20446;-71
2023/09/02 11:30:29;;;;;;;54.87;1.57;;;;;;;;;;5070475;28;20459;-71
2023/09/02 11:32:56;;;;;;;54.90;1.90;;;;;;;;;;5070155;28;20483;-71
2023/09/02 11:35:25;;;;;;;54.60;1.70;;;;;;;;;;5070348;28;20521;-68
2023/09/02 11:37:52;;;;;;;54.80;1.60;;;;;;;;;;5070371;28;20455;-69
2023/09/02 11:40:20;;;;;;;55.00;2.10;;;;;;;;;;5070362;28;20932;-69
2023/09/02 11:42:50;;;;;;;54.53;1.80;;;;;;;;;;5070346;28;20454;-69
2023/09/02 11:45:17;;;;;;;54.37;1.60;;;;;;;;;;5070433;28;20987;-69
2023/09/02 11:47:44;;;;;;;54.70;1.90;;;;;;;;;;5070431;28;20450;-70
2023/09/02 11:50:15;;;;;;;54.50;1.80;;;;;;;;;;5070194;28;20483;-70
2023/09/02 11:52:42;;;;;;;54.20;1.63;;;;;;;;;;5070068;28;20904;-70
2023/09/02 11:55:10;;;;;;;54.30;1.60;;;;;;;;;;5072652;28;20459;-70
2023/09/02 11:57:37;;;;;;;54.30;1.70;;;;;;;;;;5074027;28;20466;-71
2023/09/02 12:00:07;;;;;;;54.70;2.03;;;;;;;;;;5074042;28;20443;-70
2023/09/02 12:02:36;;;;;;;54.30;1.60;;;;;;;;;;5074036;28;20504;-70
2023/09/02 12:05:03;;;;;;;54.27;1.67;;;;;;;;;;5074358;28;20459;-71
2023/09/02 12:07:30;;;;;;;54.07;1.70;;;;;;;;;;5074058;28;20447;-71
2023/09/02 12:09:58;;;;;;;54.90;2.10;;;;;;;;;;5073894;28;20509;-71
2023/09/02 12:12:27;;;;;;;54.37;1.50;;;;;;;;;;5073288;28;20448;-70
2023/09/02 12:14:54;;;;;;;54.27;1.53;;;;;;;;;;5073662;28;20906;-70
2023/09/02 12:17:23;;;;;;;54.80;2.10;;;;;;;;;;5073525;28;20439;-70
2023/09/02 12:19:50;;;;;;;53.93;1.70;;;;;;;;;;5073815;28;20465;-70
2023/09/02 12:22:18;;;;;;;54.50;1.90;;;;;;;;;;5073438;28;20443;-70
2023/09/02 12:24:45;;;;;;;54.30;1.80;;;;;;;;;;5073512;28;20471;-71
2023/09/02 12:27:16;;;;;;;54.50;1.97;;;;;;;;;;5073478;28;20458;-70
2023/09/02 12:29:54;;;;;;;54.80;1.97;;;;;;;;;;5073404;28;20852;-70
2023/09/02 12:32:22;;;;;;;53.97;1.60;;;;;;;;;;5073402;28;20827;-70
2023/09/02 12:34:50;;;;;;;53.73;1.67;;;;;;;;;;5073414;28;20467;-71
2023/09/02 12:37:18;;;;;;;54.20;1.70;;;;;;;;;;5073370;28;20876;-70
2023/09/02 12:39:45;;;;;;;53.47;1.97;;;;;;;;;;5073251;28;20586;-70
2023/09/02 12:42:16;;;;;;;53.67;1.80;;;;;;;;;;5072958;28;20447;-70
2023/09/02 12:44:50;;;;;;;54.10;1.80;;;;;;;;;;5073388;28;20463;-71
2023/09/02 12:47:21;;;;;;;55.03;2.00;;;;;;;;;;5073220;28;20845;-70
2023/09/02 12:49:49;;;;;;;54.00;1.70;;;;;;;;;;5073066;28;20943;-71
2023/09/02 12:52:17;;;;;;;53.97;1.87;;;;;;;;;;5072895;28;20813;-70
2023/09/02 12:54:47;;;;;;;54.13;1.50;;;;;;;;;;5072893;28;20470;-70
2023/09/02 12:57:15;;;;;;;54.30;2.50;;;;;;;;;;5073116;28;20448;-70
2023/09/02 12:59:42;;;;;;;54.10;1.70;;;;;;;;;;5072937;28;20483;-70
2023/09/02 13:02:09;;;;;;;53.57;1.73;;;;;;;;;;5072725;28;20530;-70
2023/09/02 13:04:37;;;;;;;54.20;1.90;;;;;;;;;;5069874;28;20550;-70
2023/09/02 13:07:06;;;;;;;53.90;1.70;;;;;;;;;;5050611;28;20449;-70
2023/09/02 13:09:33;;;;;;;53.57;1.50;;;;;;;;;;5051448;28;20527;-70
2023/09/02 13:12:01;;;;;;;54.20;1.80;;;;;;;;;;5051323;28;20448;-70
2023/09/02 13:14:27;;;;;;;54.17;2.00;;;;;;;;;;5051336;28;20476;-69
2023/09/02 13:16:54;;;;;;;53.27;1.67;;;;;;;;;;5049767;28;20476;-70
2023/09/02 13:19:22;;;;;;;53.90;1.93;;;;;;;;;;5052635;28;20482;-70
2023/09/02 13:21:49;;;;;;;53.90;1.70;;;;;;;;;;5056939;28;21014;-70
2023/09/02 13:24:18;;;;;;;53.90;2.20;;;;;;;;;;5067647;28;20450;-71
2023/09/02 13:26:46;;;;;;;53.57;1.67;;;;;;;;;;5072356;28;20452;-70
2023/09/02 13:29:14;;;;;;;53.53;1.70;;;;;;;;;;5068640;28;20440;-70
2023/09/02 13:31:41;;;;;;;53.27;1.80;;;;;;;;;;5064215;28;20538;-70
2023/09/02 13:34:08;;;;;;;53.90;2.07;;;;;;;;;;5072390;28;20448;-71
2023/09/02 13:36:35;;;;;;;54.07;1.87;;;;;;;;;;5072049;28;20463;-70
2023/09/02 13:39:03;;;;;;;54.17;2.03;;;;;;;;;;5071935;28;21025;-72
2023/09/02 13:41:31;;;;;;;54.17;1.90;;;;;;;;;;5072080;28;20439;-69
2023/09/02 13:43:58;;;;;;;53.80;1.53;;;;;;;;;;5071982;28;20450;-70
2023/09/02 13:46:25;;;;;;;53.53;1.70;;;;;;;;;;5071957;28;20459;-69
2023/09/02 13:48:52;;;;;;;53.73;1.70;;;;;;;;;;5071900;28;20444;-69
2023/09/02 13:51:22;;;;;;;53.97;1.90;;;;;;;;;;5071970;28;20470;-70
2023/09/02 13:53:49;;;;;;;54.97;2.73;;;;;;;;;;5071822;28;20535;-69
2023/09/02 13:56:16;;;;;;;54.50;1.50;;;;;;;;;;5071918;28;20471;-69
2023/09/02 13:58:46;;;;;;;54.43;1.57;;;;;;;;;;5071953;28;20444;-70
2023/09/02 14:01:14;;;;;;;56.17;2.23;;;;;;;;;;5072021;28;20459;-71
2023/09/02 14:03:43;;;;;;;54.40;1.80;;;;;;;;;;5071374;28;20447;-71
2023/09/02 14:06:10;;;;;;;54.33;1.70;;;;;;;;;;5071584;28;20477;-69
2023/09/02 14:08:38;;;;;;;54.27;1.40;;;;;;;;;;5071706;28;20443;-70
2023/09/02 14:11:06;;;;;;;54.20;1.53;;;;;;;;;;5071608;28;20821;-69
2023/09/02 14:13:36;;;;;;;54.00;1.40;;;;;;;;;;5071221;28;20502;-69
2023/09/02 14:16:05;;;;;;;54.77;1.80;;;;;;;;;;5071277;28;20851;-69
2023/09/02 14:18:32;;;;;;;54.50;2.10;;;;;;;;;;5071460;28;20550;-70
2023/09/02 14:20:59;;;;;;;54.40;1.90;;;;;;;;;;5071602;28;20883;-69
2023/09/02 14:23:26;;;;;;;54.03;2.07;;;;;;;;;;5071030;28;20439;-70
2023/09/02 14:25:53;;;;;;;54.30;1.50;;;;;;;;;;5071324;28;20474;-70
2023/09/02 14:28:21;;;;;;;54.93;1.77;;;;;;;;;;5071205;28;20754;-70
2023/09/02 14:30:48;;;;;;;54.30;1.47;;;;;;;;;;5071197;28;20479;-70
2023/09/02 14:33:17;;;;;;;54.43;1.70;;;;;;;;;;5071192;28;20820;-69
2023/09/02 14:35:44;;;;;;;54.57;1.67;;;;;;;;;;5070964;28;20990;-69